sensor_id;sensor_type;location;lat;lon;timestamp;pressure;altitude;pressure_sealevel;temperature;humidity
63582;BME280;49727;51.078;17.066;2023-09-08T00:03:00;100926.28;;;15.83;66.40
63582;BME280;49727;51.078;17.066;2023-09-08T00:18:00;100902.09;;;15.68;66.67
63582;BME280;49727;51.078;17.066;2023-09-08T00:33:00;100908.00;;;15.48;67.22
63582;BME280;49727;51.078;17.066;2023-09-08T00:48:01;100904.50;;;15.33;68.20
63582;BME280;49727;51.078;17.066;2023-09-08T01:03:01;100910.41;;;15.13;68.59
63582;BME280;49727;51.078;17.066;2023-09-08T01:18:02;100894.09;;;15.00;69.37
63582;BME280;49727;51.078;17.066;2023-09-08T01:33:03;100892.06;;;14.79;69.81
63582;BME280;49727;51.078;17.066;2023-09-08T01:48:04;100886.50;;;14.65;70.35
63582;BME280;49727;51.078;17.066;2023-09-08T02:03:04;100886.59;;;14.49;70.70
63582;BME280;49727;51.078;17.066;2023-09-08T02:18:06;100891.06;;;14.33;71.50
63582;BME280;49727;51.078;17.066;2023-09-08T02:33:07;100886.13;;;14.22;71.90
63582;BME280;49727;51.078;17.066;2023-09-08T02:48:07;100879.66;;;14.08;72.53
63582;BME280;49727;51.078;17.066;2023-09-08T03:03:08;100865.47;;;13.99;72.68
63582;BME280;49727;51.078;17.066;2023-09-08T03:18:08;100860.19;;;13.83;72.88
63582;BME280;49727;51.078;17.066;2023-09-08T03:33:08;100865.59;;;13.75;73.63
63582;BME280;49727;51.078;17.066;2023-09-08T03:48:09;100860.03;;;13.45;73.90
63582;BME280;49727;51.078;17.066;2023-09-08T04:03:10;100861.19;;;13.34;74.43
63582;BME280;49727;51.078;17.066;2023-09-08T04:18:11;100861.56;;;13.23;74.67
63582;BME280;49727;51.078;17.066;2023-09-08T04:33:11;100851.56;;;13.25;75.22
63582;BME280;49727;51.078;17.066;2023-09-08T04:48:12;100855.84;;;13.42;75.52
63582;BME280;49727;51.078;17.066;2023-09-08T05:03:12;100855.69;;;13.83;75.66
63582;BME280;49727;51.078;17.066;2023-09-08T05:18:13;100854.44;;;14.26;75.35
63582;BME280;49727;51.078;17.066;2023-09-08T05:33:13;100856.31;;;14.86;75.66
63582;BME280;49727;51.078;17.066;2023-09-08T05:48:13;100862.63;;;15.68;74.49
63582;BME280;49727;51.078;17.066;2023-09-08T06:03:14;100867.75;;;16.36;74.15
63582;BME280;49727;51.078;17.066;2023-09-08T06:18:14;100858.91;;;17.14;72.37
63582;BME280;49727;51.078;17.066;2023-09-08T06:33:14;100855.97;;;17.92;72.52
63582;BME280;49727;51.078;17.066;2023-09-08T06:48:15;100874.34;;;18.71;70.23
63582;BME280;49727;51.078;17.066;2023-09-08T07:03:16;100873.78;;;19.68;67.86
63582;BME280;49727;51.078;17.066;2023-09-08T07:18:16;100874.03;;;20.43;66.48
63582;BME280;49727;51.078;17.066;2023-09-08T07:33:16;100872.34;;;21.62;63.55
63582;BME280;49727;51.078;17.066;2023-09-08T07:48:17;100883.53;;;22.03;61.58
63582;BME280;49727;51.078;17.066;2023-09-08T08:03:17;100882.69;;;23.34;59.35
63582;BME280;49727;51.078;17.066;2023-09-08T08:18:17;100879.09;;;24.90;55.67
63582;BME280;49727;51.078;17.066;2023-09-08T08:33:18;100864.56;;;26.72;50.97
63582;BME280;49727;51.078;17.066;2023-09-08T08:48:20;100868.97;;;29.33;45.72
63582;BME280;49727;51.078;17.066;2023-09-08T09:03:24;100848.28;;;37.96;31.00
63582;BME280;49727;51.078;17.066;2023-09-08T09:18:26;100847.91;;;45.85;21.79
63582;BME280;49727;51.078;17.066;2023-09-08T09:33:30;100833.72;;;49.57;17.96
63582;BME280;49727;51.078;17.066;2023-09-08T09:48:30;100825.84;;;52.28;14.82
63582;BME280;49727;51.078;17.066;2023-09-08T10:03:31;100800.72;;;53.31;13.09
63582;BME280;49727;51.078;17.066;2023-09-08T10:18:33;100786.66;;;55.60;11.47
63582;BME280;49727;51.078;17.066;2023-09-08T10:33:34;100781.91;;;56.90;10.62
63582;BME280;49727;51.078;17.066;2023-09-08T10:48:43;100769.03;;;57.47;9.64
63582;BME280;49727;51.078;17.066;2023-09-08T11:03:46;100748.22;;;57.37;9.16
63582;BME280;49727;51.078;17.066;2023-09-08T11:18:47;100742.22;;;59.37;8.05
63582;BME280;49727;51.078;17.066;2023-09-08T11:33:54;100732.56;;;59.04;7.70
63582;BME280;49727;51.078;17.066;2023-09-08T11:48:55;100720.59;;;58.46;7.47
63582;BME280;49727;51.078;17.066;2023-09-08T12:03:56;100695.88;;;55.45;8.92
63582;BME280;49727;51.078;17.066;2023-09-08T12:18:58;100680.31;;;47.44;13.55
63582;BME280;49727;51.078;17.066;2023-09-08T12:33:58;100679.88;;;41.96;17.10
63582;BME280;49727;51.078;17.066;2023-09-08T12:48:58;100669.53;;;40.27;18.45
63582;BME280;49727;51.078;17.066;2023-09-08T13:03:59;100651.88;;;38.53;19.72
63582;BME280;49727;51.078;17.066;2023-09-08T13:18:59;100652.06;;;37.40;20.86
63582;BME280;49727;51.078;17.066;2023-09-08T13:34:00;100631.78;;;35.69;22.47
63582;BME280;49727;51.078;17.066;2023-09-08T13:49:00;100612.13;;;33.94;23.80
63582;BME280;49727;51.078;17.066;2023-09-08T14:04:01;100596.25;;;33.68;24.45
63582;BME280;49727;51.078;17.066;2023-09-08T14:19:01;100592.13;;;33.34;25.13
63582;BME280;49727;51.078;17.066;2023-09-08T14:34:02;100585.78;;;32.61;25.95
63582;BME280;49727;51.078;17.066;2023-09-08T14:49:03;100584.94;;;31.77;26.34
63582;BME280;49727;51.078;17.066;2023-09-08T15:04:04;100580.03;;;30.69;27.31
63582;BME280;49727;51.078;17.066;2023-09-08T15:19:04;100577.25;;;29.73;28.21
63582;BME280;49727;51.078;17.066;2023-09-08T15:34:04;100575.72;;;28.87;29.72
63582;BME280;49727;51.078;17.066;2023-09-08T15:49:07;100561.19;;;28.26;30.79
63582;BME280;49727;51.078;17.066;2023-09-08T16:04:08;100557.75;;;27.84;31.99
63582;BME280;49727;51.078;17.066;2023-09-08T16:19:11;100550.91;;;27.05;33.43
63582;BME280;49727;51.078;17.066;2023-09-08T16:34:11;100543.38;;;26.48;34.85
63582;BME280;49727;51.078;17.066;2023-09-08T16:49:11;100548.41;;;26.09;36.28
63582;BME280;49727;51.078;17.066;2023-09-08T17:04:12;100543.13;;;25.54;38.13
63582;BME280;49727;51.078;17.066;2023-09-08T17:19:12;100541.66;;;24.81;40.72
63582;BME280;49727;51.078;17.066;2023-09-08T17:34:19;100548.13;;;24.09;43.30
63582;BME280;49727;51.078;17.066;2023-09-08T17:49:20;100555.84;;;23.44;45.60
63582;BME280;49727;51.078;17.066;2023-09-08T18:04:21;100555.34;;;22.84;47.84
63582;BME280;49727;51.078;17.066;2023-09-08T18:19:21;100559.72;;;22.33;49.99
63582;BME280;49727;51.078;17.066;2023-09-08T18:34:21;100571.66;;;21.84;51.79
63582;BME280;49727;51.078;17.066;2023-09-08T18:49:22;100570.53;;;21.38;53.17
63582;BME280;49727;51.078;17.066;2023-09-08T19:04:22;100573.38;;;21.01;54.36
63582;BME280;49727;51.078;17.066;2023-09-08T19:19:23;100573.28;;;20.58;55.76
63582;BME280;49727;51.078;17.066;2023-09-08T19:34:23;100570.06;;;20.31;56.99
63582;BME280;49727;51.078;17.066;2023-09-08T19:49:24;100570.44;;;19.98;58.01
63582;BME280;49727;51.078;17.066;2023-09-08T20:04:24;100575.69;;;19.67;58.94
63582;BME280;49727;51.078;17.066;2023-09-08T20:19:24;100577.50;;;19.48;60.13
63582;BME280;49727;51.078;17.066;2023-09-08T20:34:24;100575.56;;;19.30;60.64
63582;BME280;49727;51.078;17.066;2023-09-08T20:49:25;100578.19;;;19.05;61.36
63582;BME280;49727;51.078;17.066;2023-09-08T21:04:25;100572.28;;;18.83;61.75
63582;BME280;49727;51.078;17.066;2023-09-08T21:19:25;100585.06;;;18.55;62.28
63582;BME280;49727;51.078;17.066;2023-09-08T21:34:28;100570.59;;;18.30;62.99
63582;BME280;49727;51.078;17.066;2023-09-08T21:49:30;100580.22;;;17.99;63.21
63582;BME280;49727;51.078;17.066;2023-09-08T22:04:31;100571.28;;;17.71;64.31
63582;BME280;49727;51.078;17.066;2023-09-08T22:19:31;100584.78;;;17.65;64.93
63582;BME280;49727;51.078;17.066;2023-09-08T22:34:31;100571.06;;;17.33;65.45
63582;BME280;49727;51.078;17.066;2023-09-08T22:49:33;100563.81;;;17.13;66.02
63582;BME280;49727;51.078;17.066;2023-09-08T23:04:33;100559.22;;;17.07;66.99
63582;BME280;49727;51.078;17.066;2023-09-08T23:19:33;100561.31;;;17.05;67.39
63582;BME280;49727;51.078;17.066;2023-09-08T23:34:34;100545.94;;;16.92;67.69
63582;BME280;49727;51.078;17.066;2023-09-08T23:49:34;100541.97;;;16.74;68.23
